WBKL

Labuan Airport

Labuan, Malaysia
TAF WBKL 211700Z 2118/2218 03010KT 9999 FEW012
Issued Valid From Valid To
Jan-21 @ 17:00 UTC
(3 hours ago)
Jan-21 @ 18:00 UTC
(2 hours ago)
Jan-22 @ 18:00 UTC
(in 22 hours)
Jan-21 @ 18:00 to Jan-22 @ 18:00
TAF WBKL 211700Z 2118/2218 03010KT 9999 FEW012
Wind Visibility Clouds
30° at 10 knots 10,000+ meters
  • Few at 1,200' AGL
TAF WBKL 211700Z 2118/2218 03010KT 9999 FEW012
Issued Jan-21 @ 17:00 UTC
(3 hours ago)
Valid From Jan-21 @ 18:00 UTC
(2 hours ago)
Valid To Jan-22 @ 18:00 UTC
(in 22 hours)
Jan-21 @ 18:00 - Jan-22 @ 18:00
Wind Visibility
30° at 10 knots 10,000+ meters
Clouds
  • Few at 1,200' AGL